createdAt,value
2022-10-16T00:01:36.843Z,13.30
2022-10-16T00:04:04.431Z,15.02
2022-10-16T00:06:32.460Z,17.10
2022-10-16T00:09:00.355Z,17.13
2022-10-16T00:11:36.848Z,15.05
2022-10-16T00:14:07.827Z,18.38
2022-10-16T00:16:35.528Z,23.05
2022-10-16T00:19:03.600Z,15.30
2022-10-16T00:21:32.340Z,14.00
2022-10-16T00:24:06.882Z,22.35
2022-10-16T00:26:36.118Z,17.67
2022-10-16T00:29:04.604Z,21.58
2022-10-16T00:31:32.049Z,19.25
2022-10-16T00:34:00.675Z,21.20
2022-10-16T00:36:28.160Z,17.40
2022-10-16T00:41:28.974Z,18.85
2022-10-16T00:44:02.518Z,23.40
2022-10-16T00:46:40.276Z,16.42
2022-10-16T00:49:20.485Z,17.58
2022-10-16T00:51:53.993Z,15.93
2022-10-16T00:54:28.345Z,18.10
2022-10-16T00:56:58.588Z,28.23
2022-10-16T00:59:32.474Z,22.40
2022-10-16T01:02:03.112Z,14.82
2022-10-16T01:04:50.658Z,16.58
2022-10-16T01:07:39.204Z,22.33
2022-10-16T01:10:36.141Z,15.83
2022-10-16T01:13:15.039Z,22.77
2022-10-16T01:16:10.046Z,17.92
2022-10-16T01:19:10.036Z,18.90
2022-10-16T01:21:42.799Z,15.90
2022-10-16T01:24:20.134Z,16.85
2022-10-16T01:27:25.382Z,17.50
2022-10-16T01:30:23.631Z,20.70
2022-10-16T01:33:18.364Z,20.80
2022-10-16T01:36:03.113Z,29.55
2022-10-16T01:38:40.780Z,11.18
2022-10-16T01:41:46.970Z,17.42
2022-10-16T01:44:24.286Z,18.60
2022-10-16T01:46:53.149Z,19.88
2022-10-16T01:49:24.296Z,15.30
2022-10-16T01:51:55.983Z,22.35
2022-10-16T01:54:26.150Z,14.18
2022-10-16T01:56:55.236Z,14.82
2022-10-16T01:59:26.922Z,17.63
2022-10-16T02:02:00.133Z,15.65
2022-10-16T02:04:43.105Z,20.63
2022-10-16T02:07:11.528Z,20.55
2022-10-16T02:09:39.333Z,14.90
2022-10-16T02:12:19.327Z,15.70
2022-10-16T02:14:46.473Z,19.45
2022-10-16T02:17:17.254Z,21.95
2022-10-16T02:19:46.908Z,17.35
2022-10-16T02:22:30.071Z,17.88
2022-10-16T02:25:18.065Z,26.25
2022-10-16T02:28:15.462Z,17.35
2022-10-16T02:30:56.621Z,14.82
2022-10-16T02:33:25.781Z,16.10
2022-10-16T02:35:54.846Z,24.52
2022-10-16T02:38:23.276Z,20.65
2022-10-16T02:40:50.810Z,20.23
2022-10-16T02:43:18.106Z,21.17
2022-10-16T02:45:45.611Z,20.13
2022-10-16T02:48:12.714Z,25.75
2022-10-16T02:50:39.775Z,22.55
2022-10-16T02:53:06.925Z,18.17
2022-10-16T02:55:34.137Z,20.17
2022-10-16T02:58:01.228Z,18.75
2022-10-16T03:00:28.904Z,19.38
2022-10-16T03:02:56.001Z,17.67
2022-10-16T03:07:50.037Z,14.43
2022-10-16T03:10:17.144Z,13.57
2022-10-16T03:12:44.179Z,16.75
2022-10-16T03:15:11.315Z,15.88
2022-10-16T03:17:38.481Z,15.63
2022-10-16T03:20:06.203Z,15.77
2022-10-16T03:22:33.560Z,22.42
2022-10-16T03:25:00.673Z,18.65
2022-10-16T03:27:28.223Z,20.08
2022-10-16T03:29:55.875Z,22.25
2022-10-16T03:32:25.219Z,21.85
2022-10-16T03:34:54.508Z,18.75
2022-10-16T03:37:21.642Z,17.60
2022-10-16T03:39:48.858Z,15.40
2022-10-16T03:42:16.037Z,16.55
2022-10-16T03:44:43.148Z,19.17
2022-10-16T03:47:10.302Z,19.77
2022-10-16T03:49:37.472Z,18.25
2022-10-16T03:52:04.688Z,17.13
2022-10-16T03:54:31.725Z,18.67
2022-10-16T03:56:58.768Z,17.25
2022-10-16T03:59:25.869Z,15.68
2022-10-16T04:01:53.096Z,17.58
2022-10-16T04:04:20.201Z,22.25
2022-10-16T04:06:47.249Z,16.20
2022-10-16T04:09:14.496Z,13.07
2022-10-16T04:11:41.560Z,18.67
2022-10-16T04:14:08.979Z,16.27
2022-10-16T04:16:36.174Z,15.95
2022-10-16T04:19:03.508Z,13.60
2022-10-16T04:21:30.774Z,16.65
2022-10-16T04:23:57.941Z,14.82
2022-10-16T04:26:25.104Z,19.65
2022-10-16T04:28:52.283Z,23.08
2022-10-16T04:31:19.645Z,19.55
2022-10-16T04:33:46.693Z,17.58
2022-10-16T04:36:14.167Z,19.05
2022-10-16T04:38:41.224Z,16.35
2022-10-16T04:41:08.509Z,16.23
2022-10-16T04:43:35.765Z,15.75
2022-10-16T04:46:04.961Z,17.17
2022-10-16T04:48:33.038Z,20.00
2022-10-16T04:51:00.618Z,15.60
2022-10-16T04:53:27.746Z,17.08
2022-10-16T04:55:55.264Z,14.52
2022-10-16T04:58:22.427Z,19.25
2022-10-16T05:00:49.498Z,20.83
2022-10-16T05:03:16.865Z,19.92
2022-10-16T05:05:45.998Z,19.42
2022-10-16T05:08:15.125Z,19.33
2022-10-16T05:10:43.766Z,21.70
2022-10-16T05:13:11.682Z,21.90
2022-10-16T05:15:38.889Z,19.23
2022-10-16T05:18:06.064Z,16.17
2022-10-16T05:20:33.364Z,17.83
2022-10-16T05:23:00.552Z,23.77
2022-10-16T05:25:27.806Z,17.48
2022-10-16T05:27:55.156Z,20.75
2022-10-16T05:30:22.610Z,16.73
2022-10-16T05:32:51.117Z,20.48
2022-10-16T05:35:20.143Z,21.07
2022-10-16T05:37:47.762Z,26.98
2022-10-16T05:40:17.217Z,24.60
2022-10-16T05:42:44.560Z,24.15
2022-10-16T05:45:12.788Z,22.45
2022-10-16T05:47:40.429Z,21.60
2022-10-16T05:50:08.081Z,19.70
2022-10-16T05:52:35.330Z,20.10
2022-10-16T05:55:02.837Z,21.45
2022-10-16T05:57:30.321Z,15.93
2022-10-16T05:59:57.528Z,16.50
2022-10-16T06:02:24.580Z,19.27
2022-10-16T06:04:54.898Z,18.17
2022-10-16T06:07:23.872Z,16.33
2022-10-16T06:09:53.199Z,15.85
2022-10-16T06:14:47.993Z,16.70
2022-10-16T06:17:16.198Z,12.57
2022-10-16T06:19:43.317Z,17.23
2022-10-16T06:22:10.540Z,11.15
2022-10-16T06:24:37.658Z,11.40
2022-10-16T06:27:05.283Z,12.30
2022-10-16T06:29:32.342Z,19.10
2022-10-16T06:31:59.473Z,15.05
2022-10-16T06:34:26.493Z,13.20
2022-10-16T06:36:53.616Z,15.25
2022-10-16T06:39:20.760Z,16.75
2022-10-16T06:41:47.892Z,13.32
2022-10-16T06:44:20.058Z,10.30
2022-10-16T06:49:16.246Z,15.35
2022-10-16T06:51:43.693Z,18.00
2022-10-16T06:54:11.085Z,13.02
2022-10-16T06:56:38.534Z,14.00
2022-10-16T06:59:05.726Z,15.13
2022-10-16T07:01:33.393Z,15.93
2022-10-16T07:04:02.426Z,17.80
2022-10-16T07:06:34.090Z,15.43
2022-10-16T07:09:07.268Z,13.25
2022-10-16T07:11:34.928Z,14.25
2022-10-16T07:14:02.030Z,13.63
2022-10-16T07:16:32.452Z,10.88
2022-10-16T07:19:02.841Z,10.13
2022-10-16T07:21:35.751Z,11.10
2022-10-16T07:24:07.978Z,14.35
2022-10-16T07:26:37.058Z,11.27
2022-10-16T07:29:04.741Z,13.50
2022-10-16T07:31:32.260Z,12.60
2022-10-16T07:34:00.932Z,13.18
2022-10-16T07:36:28.702Z,17.05
2022-10-16T07:38:58.844Z,17.48
2022-10-16T07:41:28.565Z,14.75
2022-10-16T07:44:00.215Z,15.75
2022-10-16T07:46:27.632Z,12.70
2022-10-16T07:48:55.290Z,19.50
2022-10-16T07:51:25.369Z,13.20
2022-10-16T07:53:53.355Z,14.43
2022-10-16T07:56:21.623Z,14.10
2022-10-16T07:58:50.323Z,11.35
2022-10-16T08:01:19.024Z,14.27
2022-10-16T08:03:49.701Z,12.35
2022-10-16T08:06:20.838Z,16.65
2022-10-16T08:08:51.163Z,9.93
2022-10-16T08:11:18.469Z,12.95
2022-10-16T08:13:45.540Z,16.95
2022-10-16T08:16:12.820Z,13.90
2022-10-16T08:18:41.150Z,15.38
2022-10-16T08:21:20.370Z,12.55
2022-10-16T08:23:54.493Z,10.68
2022-10-16T08:26:27.199Z,9.68
2022-10-16T08:28:55.574Z,11.15
2022-10-16T08:31:23.928Z,11.73
2022-10-16T08:33:52.483Z,12.80
2022-10-16T08:36:19.975Z,10.53
2022-10-16T08:38:50.998Z,7.68
2022-10-16T08:41:58.362Z,6.93
2022-10-16T08:44:53.357Z,11.25
2022-10-16T08:47:26.450Z,9.93
2022-10-16T08:50:02.224Z,10.65
2022-10-16T08:52:39.148Z,12.27
2022-10-16T08:55:07.191Z,9.70
2022-10-16T08:57:34.300Z,11.52
2022-10-16T09:00:13.164Z,15.05
2022-10-16T09:03:00.056Z,9.82
2022-10-16T09:05:52.049Z,7.97
2022-10-16T09:09:05.272Z,9.32
2022-10-16T09:11:56.201Z,10.18
2022-10-16T09:15:07.572Z,6.80
2022-10-16T09:17:44.716Z,9.23
2022-10-16T09:20:28.995Z,10.45
2022-10-16T09:23:30.011Z,11.98
2022-10-16T09:25:59.728Z,12.40
2022-10-16T09:28:26.880Z,8.32
2022-10-16T09:30:54.674Z,10.27
2022-10-16T09:33:28.460Z,9.93
2022-10-16T09:35:59.057Z,11.10
2022-10-16T09:38:33.366Z,12.75
2022-10-16T09:41:12.013Z,6.28
2022-10-16T09:43:57.961Z,9.63
2022-10-16T09:46:38.560Z,9.02
2022-10-16T09:49:24.799Z,8.13
2022-10-16T09:52:03.946Z,8.60
2022-10-16T09:54:31.375Z,5.45
2022-10-16T09:57:13.493Z,7.68
2022-10-16T09:59:53.029Z,6.60
2022-10-16T10:02:40.542Z,14.38
2022-10-16T10:05:25.909Z,10.05
2022-10-16T10:07:58.463Z,5.65
2022-10-16T10:10:29.556Z,5.50
2022-10-16T10:12:57.679Z,5.38
2022-10-16T10:15:27.167Z,5.78
2022-10-16T10:17:58.003Z,7.68
2022-10-16T10:20:38.486Z,7.45
2022-10-16T10:23:24.044Z,6.30
2022-10-16T10:26:21.088Z,12.57
2022-10-16T10:29:20.973Z,8.32
2022-10-16T10:32:09.251Z,14.85
2022-10-16T10:34:50.631Z,28.58
2022-10-16T10:37:38.728Z,7.05
2022-10-16T10:40:59.790Z,9.48
2022-10-16T10:44:01.011Z,5.07
2022-10-16T10:46:56.272Z,9.70
2022-10-16T10:50:10.155Z,10.25
2022-10-16T10:52:43.258Z,4.90
2022-10-16T10:55:46.760Z,7.03
2022-10-16T10:58:33.656Z,5.45
2022-10-16T11:01:32.885Z,9.45
2022-10-16T11:04:28.860Z,6.50
2022-10-16T11:07:10.157Z,7.95
2022-10-16T11:09:48.427Z,11.45
2022-10-16T11:12:37.772Z,7.93
2022-10-16T11:15:34.327Z,6.22
2022-10-16T11:18:10.852Z,5.05
2022-10-16T11:21:03.427Z,6.75
2022-10-16T11:24:05.001Z,7.03
2022-10-16T11:26:40.196Z,12.07
2022-10-16T11:29:27.742Z,5.57
2022-10-16T11:32:05.660Z,9.48
2022-10-16T11:34:45.308Z,9.30
2022-10-16T11:37:21.269Z,11.88
2022-10-16T11:39:50.693Z,9.82
2022-10-16T11:42:31.328Z,12.15
2022-10-16T11:45:06.947Z,7.57
2022-10-16T11:48:28.812Z,8.30
2022-10-16T11:51:12.665Z,12.70
2022-10-16T11:54:02.830Z,5.53
2022-10-16T11:56:32.906Z,9.88
2022-10-16T11:59:26.225Z,6.38
2022-10-16T12:02:21.915Z,12.52
2022-10-16T12:05:12.719Z,7.47
2022-10-16T12:07:57.077Z,9.80
2022-10-16T12:10:28.894Z,7.32
2022-10-16T12:12:57.286Z,7.10
2022-10-16T12:15:57.631Z,12.37
2022-10-16T12:18:25.957Z,6.13
2022-10-16T12:21:06.186Z,5.10
2022-10-16T12:24:04.768Z,8.35
2022-10-16T12:26:39.881Z,9.05
2022-10-16T12:29:33.275Z,7.18
2022-10-16T12:32:01.240Z,8.20
2022-10-16T12:34:43.358Z,9.98
2022-10-16T12:37:37.371Z,7.35
2022-10-16T12:40:23.980Z,10.55
2022-10-16T12:42:51.448Z,6.65
2022-10-16T12:45:32.160Z,8.10
2022-10-16T12:48:02.234Z,10.10
2022-10-16T12:50:37.474Z,7.43
2022-10-16T12:53:26.913Z,10.95
2022-10-16T12:56:10.441Z,8.32
2022-10-16T12:58:57.914Z,4.30
2022-10-16T13:02:18.326Z,6.63
2022-10-16T13:05:00.709Z,14.05
2022-10-16T13:08:17.271Z,6.05
2022-10-16T13:11:27.179Z,9.35
2022-10-16T13:14:45.505Z,7.95
2022-10-16T13:17:29.854Z,7.35
2022-10-16T13:20:19.744Z,4.72
2022-10-16T13:23:31.954Z,5.65
2022-10-16T13:26:40.369Z,6.47
2022-10-16T13:29:07.659Z,6.00
2022-10-16T13:31:38.369Z,7.43
2022-10-16T13:34:11.744Z,6.35
2022-10-16T13:36:51.935Z,8.60
2022-10-16T13:39:28.727Z,3.80
2022-10-16T13:42:28.661Z,4.70
2022-10-16T13:44:56.883Z,6.43
2022-10-16T13:47:29.544Z,5.07
2022-10-16T13:50:01.356Z,8.57
2022-10-16T13:52:29.326Z,6.72
2022-10-16T13:55:00.888Z,9.32
2022-10-16T13:57:29.921Z,6.57
2022-10-16T13:59:57.249Z,7.32
2022-10-16T14:02:37.153Z,5.22
2022-10-16T14:05:09.480Z,8.65
2022-10-16T14:07:38.560Z,8.93
2022-10-16T14:10:25.874Z,9.68
2022-10-16T14:13:15.607Z,10.18
2022-10-16T14:15:49.824Z,8.63
2022-10-16T14:18:24.521Z,9.30
2022-10-16T14:20:52.150Z,7.82
2022-10-16T14:23:23.113Z,7.63
2022-10-16T14:25:50.543Z,9.15
2022-10-16T14:28:23.270Z,9.27
2022-10-16T14:31:00.326Z,6.65
2022-10-16T14:33:30.499Z,6.55
2022-10-16T14:36:09.413Z,7.55
2022-10-16T14:38:41.311Z,10.30
2022-10-16T14:41:09.376Z,8.32
2022-10-16T14:43:48.549Z,8.35
2022-10-16T14:46:30.267Z,6.97
2022-10-16T14:49:11.099Z,5.50
2022-10-16T14:51:42.316Z,7.53
2022-10-16T14:54:10.762Z,6.38
2022-10-16T14:56:57.392Z,7.03
2022-10-16T14:59:46.353Z,7.43
2022-10-16T15:02:32.240Z,10.02
2022-10-16T15:05:17.211Z,5.55
2022-10-16T15:07:45.960Z,6.95
2022-10-16T15:10:14.459Z,6.20
2022-10-16T15:12:41.948Z,7.78
2022-10-16T15:15:24.134Z,5.53
2022-10-16T15:17:53.870Z,6.97
2022-10-16T15:20:21.267Z,7.57
2022-10-16T15:22:48.521Z,9.55
2022-10-16T15:25:34.642Z,6.20
2022-10-16T15:28:04.549Z,7.22
2022-10-16T15:30:31.870Z,7.18
2022-10-16T15:32:59.415Z,12.35
2022-10-16T15:35:26.563Z,5.03
2022-10-16T15:37:53.989Z,4.93
2022-10-16T15:40:23.260Z,8.45
2022-10-16T15:45:19.406Z,8.70
2022-10-16T15:47:46.936Z,5.97
2022-10-16T15:50:16.379Z,9.60
2022-10-16T15:52:43.963Z,11.02
2022-10-16T15:55:13.864Z,8.45
2022-10-16T15:57:43.149Z,10.00
2022-10-16T16:00:15.596Z,6.85
2022-10-16T16:02:44.427Z,10.18
2022-10-16T16:05:12.054Z,12.80
2022-10-16T16:07:41.100Z,8.90
2022-10-16T16:10:11.121Z,13.57
2022-10-16T16:12:39.326Z,7.78
2022-10-16T16:15:09.668Z,10.37
2022-10-16T16:17:37.262Z,15.88
2022-10-16T16:20:06.120Z,10.57
2022-10-16T16:22:33.405Z,7.72
2022-10-16T16:25:00.622Z,8.70
2022-10-16T16:27:30.315Z,11.90
2022-10-16T16:29:57.820Z,13.95
2022-10-16T16:32:25.096Z,10.43
2022-10-16T16:34:52.241Z,7.97
2022-10-16T16:37:19.557Z,10.23
2022-10-16T16:39:46.712Z,6.63
2022-10-16T16:42:13.928Z,10.18
2022-10-16T16:44:43.774Z,9.23
2022-10-16T16:47:11.017Z,10.35
2022-10-16T16:49:39.434Z,8.90
2022-10-16T16:52:06.736Z,7.05
2022-10-16T16:57:06.273Z,11.93
2022-10-16T16:59:33.573Z,11.57
2022-10-16T17:02:01.135Z,9.05
2022-10-16T17:04:28.675Z,8.73
2022-10-16T17:06:56.432Z,18.05
2022-10-16T17:09:23.718Z,8.50
2022-10-16T17:11:51.464Z,12.43
2022-10-16T17:14:20.490Z,8.88
2022-10-16T17:19:19.823Z,10.67
2022-10-16T17:21:51.311Z,10.27
2022-10-16T17:24:21.966Z,7.80
2022-10-16T17:26:49.399Z,9.45
2022-10-16T17:29:18.411Z,9.77
2022-10-16T17:31:49.156Z,17.20
2022-10-16T17:34:18.159Z,16.02
2022-10-16T17:39:19.995Z,18.77
2022-10-16T17:41:48.763Z,11.07
2022-10-16T17:44:19.605Z,22.38
2022-10-16T17:46:49.200Z,15.30
2022-10-16T17:49:17.320Z,12.13
2022-10-16T17:51:45.290Z,11.63
2022-10-16T17:54:13.983Z,10.57
2022-10-16T17:56:41.667Z,13.15
2022-10-16T17:59:11.668Z,13.00
2022-10-16T18:01:40.898Z,12.77
2022-10-16T18:04:12.420Z,19.02
2022-10-16T18:06:42.331Z,37.03
2022-10-16T18:09:14.895Z,26.83
2022-10-16T18:11:44.507Z,22.70
2022-10-16T18:14:17.584Z,20.67
2022-10-16T18:16:45.602Z,17.17
2022-10-16T18:19:13.222Z,13.18
2022-10-16T18:21:40.706Z,13.05
2022-10-16T18:24:09.501Z,41.15
2022-10-16T18:26:37.398Z,26.75
2022-10-16T18:29:05.611Z,27.83
2022-10-16T18:31:37.855Z,28.30
2022-10-16T18:34:10.632Z,33.33
2022-10-16T18:36:39.177Z,27.45
2022-10-16T18:39:09.870Z,17.95
2022-10-16T18:41:47.077Z,24.10
2022-10-16T18:44:14.623Z,30.75
2022-10-16T18:46:42.211Z,37.03
2022-10-16T18:49:09.787Z,37.58
2022-10-16T18:51:40.599Z,21.90
2022-10-16T18:54:11.153Z,39.40
2022-10-16T18:56:39.216Z,48.33
2022-10-16T18:59:08.596Z,31.08
2022-10-16T19:04:12.706Z,33.28
2022-10-16T19:06:46.933Z,26.92
2022-10-16T19:09:17.195Z,28.40
2022-10-16T19:11:45.329Z,25.52
2022-10-16T19:14:15.726Z,24.67
2022-10-16T19:16:43.984Z,23.48
2022-10-16T19:19:17.954Z,24.08
2022-10-16T19:21:47.538Z,19.92
2022-10-16T19:24:16.537Z,18.10
2022-10-16T19:26:44.255Z,21.80
2022-10-16T19:29:11.541Z,18.13
2022-10-16T19:31:39.927Z,21.25
2022-10-16T19:34:09.881Z,16.80
2022-10-16T19:36:39.163Z,48.88
2022-10-16T19:39:15.365Z,26.77
2022-10-16T19:41:43.616Z,25.73
2022-10-16T19:44:15.051Z,21.15
2022-10-16T19:46:43.402Z,21.25
2022-10-16T19:49:17.313Z,26.30
2022-10-16T19:51:51.085Z,37.28
2022-10-16T19:54:18.894Z,30.08
2022-10-16T19:56:46.392Z,62.35
2022-10-16T19:59:16.658Z,69.00
2022-10-16T20:01:44.719Z,51.47
2022-10-16T20:04:13.800Z,70.72
2022-10-16T20:06:41.028Z,45.38
2022-10-16T20:09:08.773Z,35.25
2022-10-16T20:11:36.681Z,28.80
2022-10-16T20:14:04.836Z,25.40
2022-10-16T20:16:32.163Z,18.83
2022-10-16T20:19:00.710Z,20.83
2022-10-16T20:21:32.277Z,23.25
2022-10-16T20:24:01.540Z,28.77
2022-10-16T20:26:28.896Z,23.10
2022-10-16T20:28:56.132Z,22.67
2022-10-16T20:31:29.121Z,22.13
2022-10-16T20:33:58.716Z,18.30
2022-10-16T20:36:29.949Z,22.15
2022-10-16T20:38:57.380Z,16.27
2022-10-16T20:41:25.153Z,21.95
2022-10-16T20:43:52.681Z,20.90
2022-10-16T20:46:23.418Z,19.70
2022-10-16T20:48:51.857Z,21.35
2022-10-16T20:51:29.765Z,23.55
2022-10-16T20:54:02.532Z,21.35
2022-10-16T20:56:34.250Z,22.67
2022-10-16T20:59:01.828Z,23.13
2022-10-16T21:01:31.208Z,17.38
2022-10-16T21:06:30.727Z,22.00
2022-10-16T21:09:02.187Z,25.02
2022-10-16T21:14:02.575Z,39.28
2022-10-16T21:16:30.306Z,31.52
2022-10-16T21:18:58.079Z,38.40
2022-10-16T21:21:32.166Z,36.97
2022-10-16T21:23:59.965Z,23.92
2022-10-16T21:26:28.430Z,39.42
2022-10-16T21:29:05.469Z,24.25
2022-10-16T21:31:33.439Z,23.40
2022-10-16T21:34:00.727Z,21.35
2022-10-16T21:36:31.329Z,28.15
2022-10-16T21:39:08.207Z,18.13
2022-10-16T21:41:36.584Z,29.60
2022-10-16T21:44:05.246Z,23.65
2022-10-16T21:46:35.621Z,24.13
2022-10-16T21:49:05.894Z,25.08
2022-10-16T21:51:39.258Z,17.83
2022-10-16T21:54:09.894Z,17.67
2022-10-16T21:56:37.141Z,17.85
2022-10-16T21:59:05.228Z,18.52
2022-10-16T22:01:32.804Z,18.70
2022-10-16T22:04:00.104Z,20.58
2022-10-16T22:06:28.888Z,16.45
2022-10-16T22:08:59.596Z,20.33
2022-10-16T22:11:37.075Z,32.58
2022-10-16T22:14:14.534Z,21.60
2022-10-16T22:16:42.562Z,14.32
2022-10-16T22:19:11.385Z,17.42
2022-10-16T22:21:40.616Z,25.50
2022-10-16T22:24:08.658Z,25.45
2022-10-16T22:26:36.596Z,17.42
2022-10-16T22:29:05.060Z,18.48
2022-10-16T22:31:33.073Z,21.05
2022-10-16T22:34:03.295Z,18.23
2022-10-16T22:36:31.234Z,18.77
2022-10-16T22:38:59.329Z,17.73
2022-10-16T22:41:26.550Z,23.05
2022-10-16T22:43:54.253Z,20.90
2022-10-16T22:46:26.908Z,21.75
2022-10-16T22:48:55.894Z,18.77
2022-10-16T22:51:26.106Z,21.23
2022-10-16T22:53:53.525Z,25.65
2022-10-16T22:56:21.445Z,17.85
2022-10-16T22:58:49.316Z,15.35
2022-10-16T23:01:28.906Z,18.50
2022-10-16T23:03:56.659Z,15.00
2022-10-16T23:06:24.125Z,15.70
2022-10-16T23:08:56.025Z,18.35
2022-10-16T23:11:23.995Z,15.98
2022-10-16T23:13:51.088Z,18.00
2022-10-16T23:16:21.113Z,19.00
2022-10-16T23:18:49.327Z,18.73
2022-10-16T23:21:21.111Z,18.30
2022-10-16T23:23:48.981Z,16.50
2022-10-16T23:26:20.218Z,15.57
2022-10-16T23:28:47.387Z,15.60
2022-10-16T23:31:15.845Z,15.73
2022-10-16T23:33:44.054Z,15.98
2022-10-16T23:36:15.164Z,17.55
2022-10-16T23:38:43.143Z,17.85
2022-10-16T23:41:11.661Z,18.40
2022-10-16T23:43:39.236Z,21.38
2022-10-16T23:46:09.346Z,18.90
2022-10-16T23:48:39.558Z,17.02
2022-10-16T23:51:08.156Z,20.63
2022-10-16T23:53:35.317Z,16.07
2022-10-16T23:56:03.081Z,16.52
2022-10-16T23:58:30.295Z,25.67
